createdAt,value
2022-08-30T00:01:14.575Z,3.83
2022-08-30T00:03:47.702Z,4.15
2022-08-30T00:06:18.074Z,3.90
2022-08-30T00:08:46.121Z,4.25
2022-08-30T00:11:16.174Z,4.22
2022-08-30T00:13:45.194Z,3.65
2022-08-30T00:16:13.141Z,3.90
2022-08-30T00:18:40.797Z,3.60
2022-08-30T00:21:08.364Z,4.05
2022-08-30T00:23:35.987Z,3.83
2022-08-30T00:26:05.826Z,3.60
2022-08-30T00:28:34.152Z,3.85
2022-08-30T00:31:02.612Z,4.28
2022-08-30T00:33:29.890Z,3.88
2022-08-30T00:35:57.048Z,4.10
2022-08-30T00:38:24.461Z,3.85
2022-08-30T00:40:52.865Z,3.50
2022-08-30T00:43:27.825Z,3.80
2022-08-30T00:45:55.935Z,3.72
2022-08-30T00:48:23.820Z,3.60
2022-08-30T00:50:58.373Z,4.00
2022-08-30T00:53:30.933Z,4.32
2022-08-30T00:56:00.498Z,3.83
2022-08-30T00:58:35.552Z,3.95
2022-08-30T01:01:02.919Z,3.72
2022-08-30T01:03:30.972Z,3.90
2022-08-30T01:05:58.952Z,4.43
2022-08-30T01:08:26.150Z,4.15
2022-08-30T01:10:55.044Z,4.60
2022-08-30T01:13:23.802Z,3.97
2022-08-30T01:15:51.626Z,4.47
2022-08-30T01:18:22.278Z,4.97
2022-08-30T01:21:00.872Z,3.88
2022-08-30T01:23:29.711Z,4.28
2022-08-30T01:25:58.371Z,4.25
2022-08-30T01:28:27.682Z,3.78
2022-08-30T01:30:54.887Z,4.05
2022-08-30T01:33:22.674Z,3.90
2022-08-30T01:35:53.976Z,4.25
2022-08-30T01:38:24.891Z,4.03
2022-08-30T01:41:15.630Z,3.83
2022-08-30T01:43:43.963Z,4.07
2022-08-30T01:46:12.421Z,4.10
2022-08-30T01:48:41.715Z,3.83
2022-08-30T01:51:17.436Z,3.72
2022-08-30T01:53:45.805Z,3.83
2022-08-30T01:56:15.587Z,4.10
2022-08-30T01:58:43.593Z,4.45
2022-08-30T02:01:13.440Z,3.95
2022-08-30T02:03:43.200Z,4.05
2022-08-30T02:06:14.293Z,4.20
2022-08-30T02:08:42.013Z,3.95
2022-08-30T02:11:10.182Z,4.07
2022-08-30T02:13:38.335Z,4.03
2022-08-30T02:16:10.408Z,3.80
2022-08-30T02:18:39.365Z,4.20
2022-08-30T02:21:07.682Z,4.03
2022-08-30T02:23:35.441Z,4.43
2022-08-30T02:26:02.779Z,4.20
2022-08-30T02:28:30.040Z,4.20
2022-08-30T02:30:57.412Z,4.10
2022-08-30T02:33:24.707Z,3.50
2022-08-30T02:35:51.800Z,3.47
2022-08-30T02:38:20.139Z,4.68
2022-08-30T02:40:47.539Z,4.32
2022-08-30T02:43:15.057Z,3.60
2022-08-30T02:45:42.457Z,4.38
2022-08-30T02:48:10.167Z,4.22
2022-08-30T02:50:45.264Z,4.70
2022-08-30T02:53:16.296Z,4.47
2022-08-30T02:55:44.032Z,4.07
2022-08-30T02:58:11.559Z,4.10
2022-08-30T03:00:39.783Z,4.65
2022-08-30T03:03:07.716Z,4.28
2022-08-30T03:05:35.342Z,3.95
2022-08-30T03:08:07.968Z,4.22
2022-08-30T03:10:35.192Z,4.10
2022-08-30T03:13:03.533Z,4.57
2022-08-30T03:15:30.862Z,3.85
2022-08-30T03:17:58.620Z,4.07
2022-08-30T03:20:25.991Z,4.05
2022-08-30T03:22:53.200Z,4.30
2022-08-30T03:25:21.254Z,3.95
2022-08-30T03:27:50.746Z,4.13
2022-08-30T03:30:19.852Z,3.88
2022-08-30T03:32:47.841Z,4.20
2022-08-30T03:35:16.853Z,4.30
2022-08-30T03:37:44.537Z,3.90
2022-08-30T03:40:14.135Z,4.18
2022-08-30T03:42:41.618Z,4.10
2022-08-30T03:45:11.782Z,4.22
2022-08-30T03:47:38.854Z,4.18
2022-08-30T03:50:14.927Z,4.07
2022-08-30T03:52:42.529Z,4.20
2022-08-30T03:55:09.705Z,4.47
2022-08-30T03:57:36.816Z,4.55
2022-08-30T04:00:06.873Z,4.63
2022-08-30T04:02:34.057Z,4.13
2022-08-30T04:05:01.266Z,4.32
2022-08-30T04:07:28.364Z,4.15
2022-08-30T04:09:55.545Z,3.92
2022-08-30T04:12:23.442Z,4.15
2022-08-30T04:14:50.629Z,4.35
2022-08-30T04:17:17.763Z,4.40
2022-08-30T04:19:44.853Z,4.45
2022-08-30T04:22:13.335Z,4.15
2022-08-30T04:24:41.784Z,4.05
2022-08-30T04:27:09.431Z,4.18
2022-08-30T04:29:36.952Z,3.85
2022-08-30T04:32:04.458Z,3.72
2022-08-30T04:34:31.792Z,3.70
2022-08-30T04:36:58.922Z,3.83
2022-08-30T04:39:26.090Z,3.65
2022-08-30T04:41:53.299Z,4.07
2022-08-30T04:44:20.351Z,3.78
2022-08-30T04:46:48.242Z,3.83
2022-08-30T04:49:15.659Z,3.72
2022-08-30T04:51:42.711Z,3.72
2022-08-30T04:54:11.772Z,4.03
2022-08-30T04:56:39.230Z,4.30
2022-08-30T04:59:06.610Z,4.47
2022-08-30T05:01:44.765Z,4.13
2022-08-30T05:04:17.148Z,4.00
2022-08-30T05:06:44.594Z,4.57
2022-08-30T05:09:12.003Z,4.13
2022-08-30T05:11:39.168Z,4.28
2022-08-30T05:14:06.572Z,4.60
2022-08-30T05:16:33.797Z,4.07
2022-08-30T05:19:00.931Z,4.25
2022-08-30T05:21:29.586Z,4.22
2022-08-30T05:23:58.555Z,4.57
2022-08-30T05:26:33.336Z,5.22
2022-08-30T05:29:00.843Z,4.10
2022-08-30T05:31:32.027Z,4.07
2022-08-30T05:33:59.836Z,4.07
2022-08-30T05:36:30.414Z,4.22
2022-08-30T05:38:58.033Z,4.45
2022-08-30T05:41:27.136Z,4.38
2022-08-30T05:43:59.932Z,4.05
2022-08-30T05:49:07.309Z,4.18
2022-08-30T05:51:36.203Z,4.50
2022-08-30T05:54:13.620Z,4.47
2022-08-30T05:56:42.444Z,4.28
2022-08-30T05:59:09.972Z,4.68
2022-08-30T06:01:40.672Z,4.60
2022-08-30T06:04:10.312Z,4.80
2022-08-30T06:06:39.284Z,5.10
2022-08-30T06:09:08.364Z,4.32
2022-08-30T06:11:36.492Z,4.75
2022-08-30T06:14:07.138Z,4.50
2022-08-30T06:16:35.859Z,4.80
2022-08-30T06:19:03.090Z,4.80
2022-08-30T06:21:34.615Z,4.38
2022-08-30T06:24:03.356Z,4.50
2022-08-30T06:29:02.936Z,4.63
2022-08-30T06:31:30.348Z,4.40
2022-08-30T06:33:57.502Z,4.45
2022-08-30T06:36:25.832Z,4.00
2022-08-30T06:38:55.302Z,4.15
2022-08-30T06:41:26.713Z,4.50
2022-08-30T06:43:54.698Z,4.88
2022-08-30T06:46:28.940Z,4.75
2022-08-30T06:48:56.957Z,4.25
2022-08-30T06:51:26.490Z,4.50
2022-08-30T06:53:54.235Z,4.65
2022-08-30T06:56:22.649Z,4.20
2022-08-30T06:58:50.382Z,4.65
2022-08-30T07:01:23.441Z,4.40
2022-08-30T07:03:50.975Z,4.50
2022-08-30T07:06:19.186Z,4.00
2022-08-30T07:08:47.215Z,4.43
2022-08-30T07:11:15.289Z,4.45
2022-08-30T07:13:42.377Z,4.28
2022-08-30T07:16:11.881Z,4.60
2022-08-30T07:18:51.761Z,4.20
2022-08-30T07:21:22.189Z,3.80
2022-08-30T07:23:53.598Z,4.07
2022-08-30T07:26:30.472Z,4.22
2022-08-30T07:28:58.832Z,3.97
2022-08-30T07:31:26.482Z,4.30
2022-08-30T07:33:53.774Z,4.28
2022-08-30T07:36:22.187Z,3.85
2022-08-30T07:38:51.078Z,4.10
2022-08-30T07:41:23.807Z,3.97
2022-08-30T07:43:51.167Z,3.42
2022-08-30T07:46:19.062Z,3.85
2022-08-30T07:48:46.690Z,4.50
2022-08-30T07:51:16.735Z,3.92
2022-08-30T07:53:44.111Z,4.47
2022-08-30T07:56:11.413Z,4.07
2022-08-30T07:58:39.830Z,4.18
2022-08-30T08:01:09.146Z,4.40
2022-08-30T08:03:39.936Z,4.25
2022-08-30T08:06:08.409Z,3.80
2022-08-30T08:08:36.617Z,4.10
2022-08-30T08:11:27.498Z,4.57
2022-08-30T08:13:56.630Z,3.63
2022-08-30T08:16:26.942Z,4.40
2022-08-30T08:18:54.736Z,4.05
2022-08-30T08:21:23.555Z,4.60
2022-08-30T08:23:51.541Z,4.32
2022-08-30T08:26:21.915Z,4.78
2022-08-30T08:28:49.110Z,4.38
2022-08-30T08:31:18.994Z,4.03
2022-08-30T08:33:46.246Z,3.85
2022-08-30T08:36:13.566Z,3.90
2022-08-30T08:38:40.830Z,4.25
2022-08-30T08:41:27.982Z,3.70
2022-08-30T08:43:55.167Z,3.85
2022-08-30T08:46:41.264Z,3.70
2022-08-30T08:49:12.711Z,4.18
2022-08-30T08:51:59.298Z,3.83
2022-08-30T08:54:49.440Z,4.15
2022-08-30T08:57:18.471Z,4.18
2022-08-30T08:59:46.591Z,3.80
2022-08-30T09:02:24.866Z,4.03
2022-08-30T09:04:58.000Z,3.35
2022-08-30T09:07:29.765Z,3.40
2022-08-30T09:10:00.779Z,3.75
2022-08-30T09:12:28.518Z,3.80
2022-08-30T09:15:10.511Z,3.70
2022-08-30T09:18:18.964Z,3.80
2022-08-30T09:20:52.557Z,3.80
2022-08-30T09:23:32.404Z,4.18
2022-08-30T09:26:06.604Z,3.90
2022-08-30T09:28:44.058Z,3.50
2022-08-30T09:31:32.596Z,3.70
2022-08-30T09:34:09.402Z,3.40
2022-08-30T09:36:45.221Z,3.33
2022-08-30T09:39:19.382Z,3.30
2022-08-30T09:41:50.256Z,3.00
2022-08-30T09:44:23.937Z,3.80
2022-08-30T09:47:01.620Z,3.78
2022-08-30T09:49:36.881Z,3.42
2022-08-30T09:52:26.196Z,3.28
2022-08-30T09:55:27.867Z,2.95
2022-08-30T09:57:56.217Z,3.50
2022-08-30T10:00:29.113Z,3.08
2022-08-30T10:03:15.897Z,3.10
2022-08-30T10:06:10.976Z,2.85
2022-08-30T10:08:38.544Z,3.20
2022-08-30T10:11:13.539Z,2.92
2022-08-30T10:13:59.235Z,2.97
2022-08-30T10:16:44.934Z,2.83
2022-08-30T10:19:14.808Z,3.53
2022-08-30T10:21:51.255Z,3.20
2022-08-30T10:24:21.857Z,2.80
2022-08-30T10:27:02.614Z,2.92
2022-08-30T10:29:42.267Z,2.75
2022-08-30T10:32:24.359Z,3.00
2022-08-30T10:35:17.473Z,2.55
2022-08-30T10:38:03.337Z,2.55
2022-08-30T10:40:55.970Z,2.50
2022-08-30T10:43:34.587Z,2.67
2022-08-30T10:46:07.042Z,2.67
2022-08-30T10:48:44.460Z,2.50
2022-08-30T10:51:27.420Z,2.28
2022-08-30T10:54:22.295Z,2.08
2022-08-30T10:56:52.030Z,2.65
2022-08-30T10:59:20.690Z,2.88
2022-08-30T11:01:59.464Z,2.17
2022-08-30T11:04:45.823Z,2.08
2022-08-30T11:07:40.854Z,2.58
2022-08-30T11:10:31.994Z,2.30
2022-08-30T11:13:17.711Z,2.30
2022-08-30T11:16:02.958Z,2.45
2022-08-30T11:18:34.039Z,2.40
2022-08-30T11:21:39.876Z,2.20
2022-08-30T11:24:21.969Z,2.75
2022-08-30T11:26:49.132Z,2.35
2022-08-30T11:29:43.390Z,2.40
2022-08-30T11:32:13.122Z,2.20
2022-08-30T11:34:46.734Z,2.38
2022-08-30T11:37:41.098Z,2.50
2022-08-30T11:40:49.375Z,2.28
2022-08-30T11:43:28.592Z,2.20
2022-08-30T11:46:16.520Z,2.30
2022-08-30T11:49:10.057Z,2.47
2022-08-30T11:52:27.760Z,2.30
2022-08-30T11:55:01.577Z,2.95
2022-08-30T11:58:11.467Z,2.75
2022-08-30T12:00:51.322Z,2.45
2022-08-30T12:03:22.435Z,2.53
2022-08-30T12:05:54.297Z,2.80
2022-08-30T12:08:24.225Z,2.83
2022-08-30T12:11:21.255Z,2.83
2022-08-30T12:13:48.317Z,2.22
2022-08-30T12:16:23.505Z,2.80
2022-08-30T12:19:10.115Z,3.30
2022-08-30T12:21:44.949Z,2.30
2022-08-30T12:24:22.243Z,2.80
2022-08-30T12:26:51.509Z,2.78
2022-08-30T12:29:29.909Z,2.60
2022-08-30T12:32:08.438Z,2.40
2022-08-30T12:34:37.188Z,2.65
2022-08-30T12:37:08.728Z,2.60
2022-08-30T12:39:39.366Z,2.60
2022-08-30T12:42:17.576Z,2.70
2022-08-30T12:44:46.298Z,2.60
2022-08-30T12:47:18.155Z,2.60
2022-08-30T12:49:46.491Z,3.10
2022-08-30T12:52:31.676Z,2.70
2022-08-30T12:55:20.746Z,2.65
2022-08-30T12:58:07.500Z,2.42
2022-08-30T13:00:46.155Z,2.05
2022-08-30T13:03:36.858Z,2.47
2022-08-30T13:06:08.025Z,2.92
2022-08-30T13:08:51.767Z,2.50
2022-08-30T13:11:21.910Z,2.47
2022-08-30T13:13:58.470Z,1.98
2022-08-30T13:16:34.748Z,2.22
2022-08-30T13:19:35.668Z,2.20
2022-08-30T13:22:04.620Z,2.60
2022-08-30T13:24:31.769Z,2.65
2022-08-30T13:27:11.942Z,2.13
2022-08-30T13:29:39.053Z,2.05
2022-08-30T13:32:06.228Z,2.05
2022-08-30T13:34:35.553Z,2.08
2022-08-30T13:37:03.633Z,2.15
2022-08-30T13:39:31.814Z,2.15
2022-08-30T13:44:48.117Z,1.80
2022-08-30T13:47:33.023Z,2.03
2022-08-30T13:50:00.640Z,2.47
2022-08-30T13:52:28.183Z,2.20
2022-08-30T13:54:57.157Z,2.78
2022-08-30T14:00:19.281Z,1.85
2022-08-30T14:02:54.104Z,2.00
2022-08-30T14:05:47.804Z,2.03
2022-08-30T14:10:59.360Z,2.00
2022-08-30T14:13:29.307Z,2.40
2022-08-30T14:18:46.995Z,3.08
2022-08-30T14:21:14.411Z,2.92
2022-08-30T14:23:41.672Z,3.10
2022-08-30T14:26:17.887Z,3.10
2022-08-30T14:28:45.680Z,3.08
2022-08-30T14:31:13.380Z,3.28
2022-08-30T14:33:40.661Z,2.72
2022-08-30T14:36:12.953Z,2.65
2022-08-30T14:38:43.074Z,3.13
2022-08-30T14:41:11.133Z,3.05
2022-08-30T14:43:40.714Z,3.72
2022-08-30T14:46:09.142Z,3.33
2022-08-30T14:48:38.493Z,3.25
2022-08-30T14:51:17.178Z,3.40
2022-08-30T14:53:45.776Z,2.90
2022-08-30T14:56:19.615Z,3.28
2022-08-30T14:58:51.711Z,3.08
2022-08-30T15:01:19.944Z,2.92
2022-08-30T15:03:47.460Z,3.60
2022-08-30T15:06:15.048Z,3.63
2022-08-30T15:08:47.528Z,3.80
2022-08-30T15:11:17.142Z,3.17
2022-08-30T15:13:44.826Z,2.90
2022-08-30T15:16:33.071Z,2.88
2022-08-30T15:19:01.220Z,3.30
2022-08-30T15:21:30.745Z,3.20
2022-08-30T15:23:58.883Z,3.03
2022-08-30T15:26:28.791Z,3.30
2022-08-30T15:28:56.671Z,3.38
2022-08-30T15:31:28.368Z,3.53
2022-08-30T15:33:56.651Z,2.85
2022-08-30T15:36:24.342Z,3.25
2022-08-30T15:38:55.548Z,3.40
2022-08-30T15:41:23.833Z,3.15
2022-08-30T15:43:52.944Z,3.28
2022-08-30T15:46:29.917Z,3.40
2022-08-30T15:49:00.735Z,3.78
2022-08-30T15:51:28.140Z,3.45
2022-08-30T15:53:58.133Z,3.10
2022-08-30T15:56:25.727Z,3.17
2022-08-30T15:58:53.333Z,3.40
2022-08-30T16:01:22.827Z,3.53
2022-08-30T16:03:58.533Z,3.00
2022-08-30T16:06:30.537Z,3.30
2022-08-30T16:09:01.414Z,3.72
2022-08-30T16:11:28.946Z,2.95
2022-08-30T16:13:57.039Z,2.45
2022-08-30T16:16:24.839Z,2.35
2022-08-30T16:18:54.062Z,2.22
2022-08-30T16:21:29.966Z,2.10
2022-08-30T16:23:58.107Z,1.77
2022-08-30T16:26:25.814Z,2.05
2022-08-30T16:28:53.900Z,2.45
2022-08-30T16:31:21.951Z,2.13
2022-08-30T16:33:52.674Z,1.95
2022-08-30T16:36:20.552Z,1.95
2022-08-30T16:38:48.990Z,2.10
2022-08-30T16:41:21.359Z,1.95
2022-08-30T16:43:50.014Z,2.13
2022-08-30T16:46:23.465Z,1.88
2022-08-30T16:48:56.173Z,2.20
2022-08-30T16:51:24.666Z,1.83
2022-08-30T16:53:54.869Z,1.92
2022-08-30T16:56:26.567Z,2.15
2022-08-30T16:59:01.407Z,2.30
2022-08-30T17:01:30.911Z,2.40
2022-08-30T17:03:58.345Z,2.00
2022-08-30T17:06:25.845Z,1.90
2022-08-30T17:08:55.954Z,2.13
2022-08-30T17:11:24.166Z,1.92
2022-08-30T17:13:51.636Z,1.90
2022-08-30T17:16:27.298Z,2.60
2022-08-30T17:18:59.647Z,2.10
2022-08-30T17:21:28.693Z,1.98
2022-08-30T17:24:02.530Z,2.10
2022-08-30T17:26:33.911Z,1.95
2022-08-30T17:29:01.668Z,1.70
2022-08-30T17:31:31.141Z,2.25
2022-08-30T17:34:03.154Z,2.35
2022-08-30T17:36:31.417Z,2.50
2022-08-30T17:38:58.844Z,2.45
2022-08-30T17:41:26.292Z,2.83
2022-08-30T17:43:54.629Z,2.20
2022-08-30T17:46:22.023Z,2.30
2022-08-30T17:48:56.588Z,2.60
2022-08-30T17:51:29.792Z,3.20
2022-08-30T17:53:57.653Z,2.90
2022-08-30T17:56:34.284Z,2.90
2022-08-30T17:59:05.502Z,2.13
2022-08-30T18:01:33.026Z,2.38
2022-08-30T18:04:01.896Z,2.65
2022-08-30T18:06:32.519Z,2.35
2022-08-30T18:08:59.959Z,2.33
2022-08-30T18:11:27.577Z,2.53
2022-08-30T18:13:55.019Z,2.17
2022-08-30T18:16:26.238Z,2.53
2022-08-30T18:18:57.498Z,2.10
2022-08-30T18:21:25.457Z,2.40
2022-08-30T18:23:56.325Z,2.22
2022-08-30T18:26:24.388Z,1.90
2022-08-30T18:28:52.015Z,2.20
2022-08-30T18:31:19.435Z,1.88
2022-08-30T18:33:47.638Z,2.15
2022-08-30T18:36:15.321Z,2.45
2022-08-30T18:38:44.489Z,2.42
2022-08-30T18:41:16.175Z,2.17
2022-08-30T18:43:44.737Z,2.20
2022-08-30T18:46:13.947Z,2.33
2022-08-30T18:48:42.087Z,2.42
2022-08-30T18:51:13.406Z,2.20
2022-08-30T18:53:41.021Z,3.45
2022-08-30T18:56:09.714Z,3.35
2022-08-30T18:58:40.477Z,3.03
2022-08-30T19:01:12.870Z,3.08
2022-08-30T19:03:41.805Z,2.65
2022-08-30T19:06:11.521Z,3.53
2022-08-30T19:08:40.280Z,3.10
2022-08-30T19:11:08.887Z,3.13
2022-08-30T19:13:37.204Z,2.83
2022-08-30T19:16:06.400Z,3.00
2022-08-30T19:18:37.352Z,3.30
2022-08-30T19:21:05.593Z,3.22
2022-08-30T19:23:41.132Z,3.67
2022-08-30T19:26:08.706Z,3.50
2022-08-30T19:28:38.678Z,3.63
2022-08-30T19:31:06.569Z,3.60
2022-08-30T19:33:34.462Z,3.28
2022-08-30T19:36:01.922Z,3.30
2022-08-30T19:38:29.423Z,3.47
2022-08-30T19:41:00.442Z,3.30
2022-08-30T19:43:28.213Z,3.20
2022-08-30T19:46:01.592Z,3.50
2022-08-30T19:48:32.783Z,3.38
2022-08-30T19:51:06.747Z,3.35
2022-08-30T19:53:34.619Z,3.70
2022-08-30T19:56:02.039Z,3.00
2022-08-30T19:58:30.450Z,3.15
2022-08-30T20:01:00.987Z,3.38
2022-08-30T20:03:40.103Z,2.78
2022-08-30T20:06:08.208Z,3.08
2022-08-30T20:08:36.616Z,3.47
2022-08-30T20:11:04.535Z,3.45
2022-08-30T20:13:33.644Z,3.50
2022-08-30T20:16:01.439Z,3.35
2022-08-30T20:18:29.125Z,3.15
2022-08-30T20:20:57.131Z,2.78
2022-08-30T20:23:25.371Z,3.05
2022-08-30T20:25:54.529Z,3.00
2022-08-30T20:28:21.969Z,3.30
2022-08-30T20:30:49.876Z,3.00
2022-08-30T20:33:18.246Z,3.55
2022-08-30T20:35:49.273Z,3.97
2022-08-30T20:38:21.844Z,3.92
2022-08-30T20:40:50.926Z,3.83
2022-08-30T20:43:19.543Z,3.75
2022-08-30T20:45:47.318Z,3.67
2022-08-30T20:48:15.672Z,4.28
2022-08-30T20:50:43.392Z,4.25
2022-08-30T20:53:11.114Z,4.35
2022-08-30T20:55:45.590Z,4.05
2022-08-30T20:58:14.507Z,3.58
2022-08-30T21:00:45.960Z,4.13
2022-08-30T21:03:26.346Z,4.20
2022-08-30T21:05:55.745Z,3.92
2022-08-30T21:08:23.191Z,4.70
2022-08-30T21:10:50.716Z,4.28
2022-08-30T21:13:18.565Z,4.40
2022-08-30T21:15:46.392Z,4.45
2022-08-30T21:18:17.439Z,3.85
2022-08-30T21:20:45.193Z,4.20
2022-08-30T21:23:12.728Z,4.30
2022-08-30T21:25:43.239Z,3.53
2022-08-30T21:28:10.877Z,4.38
2022-08-30T21:30:39.822Z,3.88
2022-08-30T21:33:08.130Z,3.70
2022-08-30T21:35:55.668Z,3.88
2022-08-30T21:38:23.372Z,4.18
2022-08-30T21:40:51.175Z,4.18
2022-08-30T21:43:18.569Z,4.28
2022-08-30T21:45:46.517Z,4.38
2022-08-30T21:48:14.673Z,4.47
2022-08-30T21:50:42.940Z,4.05
2022-08-30T21:53:10.931Z,4.80
2022-08-30T21:55:43.685Z,4.70
2022-08-30T21:58:11.518Z,4.55
2022-08-30T22:00:39.040Z,4.28
2022-08-30T22:03:06.587Z,3.97
2022-08-30T22:05:34.094Z,4.70
2022-08-30T22:08:01.521Z,4.32
2022-08-30T22:10:32.886Z,4.03
2022-08-30T22:13:00.847Z,4.30
2022-08-30T22:15:28.225Z,3.75
2022-08-30T22:17:55.769Z,3.67
2022-08-30T22:20:23.224Z,3.67
2022-08-30T22:22:51.464Z,3.70
2022-08-30T22:25:18.970Z,4.10
2022-08-30T22:27:46.452Z,3.60
2022-08-30T22:30:16.127Z,3.63
2022-08-30T22:32:43.606Z,3.33
2022-08-30T22:35:11.163Z,3.05
2022-08-30T22:37:38.574Z,3.33
2022-08-30T22:40:06.370Z,3.58
2022-08-30T22:42:33.929Z,3.75
2022-08-30T22:45:01.407Z,3.47
2022-08-30T22:47:28.843Z,3.30
2022-08-30T22:49:56.445Z,3.13
2022-08-30T22:52:24.223Z,3.38
2022-08-30T22:54:52.932Z,3.45
2022-08-30T22:57:20.428Z,2.70
2022-08-30T22:59:48.815Z,3.85
2022-08-30T23:02:16.275Z,3.38
2022-08-30T23:04:43.792Z,3.42
2022-08-30T23:07:11.183Z,3.67
2022-08-30T23:09:38.548Z,3.30
2022-08-30T23:12:06.445Z,3.50
2022-08-30T23:14:33.819Z,3.33
2022-08-30T23:17:01.322Z,3.78
2022-08-30T23:19:28.864Z,3.38
2022-08-30T23:21:56.303Z,3.20
2022-08-30T23:24:42.094Z,3.50
2022-08-30T23:27:34.911Z,3.67
2022-08-30T23:30:21.015Z,3.45
2022-08-30T23:33:07.251Z,3.05
2022-08-30T23:35:53.234Z,3.42
2022-08-30T23:38:41.695Z,3.63
2022-08-30T23:41:32.212Z,3.13
2022-08-30T23:44:20.246Z,3.33
2022-08-30T23:47:06.464Z,3.30
2022-08-30T23:49:52.452Z,3.13
2022-08-30T23:52:38.778Z,3.63
2022-08-30T23:55:25.759Z,3.63
2022-08-30T23:58:11.913Z,3.13
